createdAt,value
2023-04-20T00:00:29.913Z,17.60
2023-04-20T00:02:58.262Z,17.27
2023-04-20T00:05:26.255Z,17.90
2023-04-20T00:07:54.601Z,18.10
2023-04-20T00:10:22.322Z,18.50
2023-04-20T00:12:50.094Z,18.67
2023-04-20T00:15:17.737Z,19.10
2023-04-20T00:17:48.481Z,20.80
2023-04-20T00:20:16.265Z,20.70
2023-04-20T00:22:44.188Z,20.27
2023-04-20T00:25:11.827Z,21.05
2023-04-20T00:27:39.487Z,21.48
2023-04-20T00:30:08.363Z,21.65
2023-04-20T00:32:37.184Z,22.67
2023-04-20T00:35:07.105Z,23.95
2023-04-20T00:37:34.815Z,22.17
2023-04-20T00:40:02.465Z,23.67
2023-04-20T00:42:31.678Z,23.92
2023-04-20T00:44:59.345Z,23.25
2023-04-20T00:47:27.065Z,24.77
2023-04-20T00:49:55.082Z,24.65
2023-04-20T00:52:24.081Z,25.08
2023-04-20T00:54:51.798Z,25.58
2023-04-20T00:57:22.402Z,27.20
2023-04-20T00:59:50.290Z,26.98
2023-04-20T01:02:18.244Z,28.08
2023-04-20T01:04:46.450Z,28.02
2023-04-20T01:07:14.132Z,28.75
2023-04-20T01:09:43.838Z,27.77
2023-04-20T01:12:11.675Z,28.27
2023-04-20T01:14:39.334Z,29.13
2023-04-20T01:17:07.010Z,26.85
2023-04-20T01:19:34.740Z,29.08
2023-04-20T01:22:03.356Z,28.88
2023-04-20T01:24:32.368Z,29.30
2023-04-20T01:27:01.372Z,28.63
2023-04-20T01:29:29.706Z,29.30
2023-04-20T01:31:57.570Z,29.60
2023-04-20T01:34:25.800Z,29.20
2023-04-20T01:36:54.701Z,29.90
2023-04-20T01:39:22.387Z,29.63
2023-04-20T01:41:51.582Z,27.80
2023-04-20T01:44:19.277Z,31.15
2023-04-20T01:46:47.018Z,29.33
2023-04-20T01:49:14.728Z,28.20
2023-04-20T01:51:42.421Z,28.58
2023-04-20T01:54:10.092Z,29.55
2023-04-20T01:56:37.770Z,30.33
2023-04-20T01:59:06.790Z,30.13
2023-04-20T02:01:35.055Z,28.83
2023-04-20T02:04:02.787Z,29.38
2023-04-20T02:06:31.913Z,30.40
2023-04-20T02:09:00.978Z,29.63
2023-04-20T02:11:28.653Z,29.55
2023-04-20T02:13:56.363Z,30.90
2023-04-20T02:16:25.569Z,30.33
2023-04-20T02:18:54.620Z,30.35
2023-04-20T02:21:22.366Z,29.48
2023-04-20T02:23:50.301Z,28.25
2023-04-20T02:26:18.058Z,28.75
2023-04-20T02:28:45.780Z,27.13
2023-04-20T02:31:13.458Z,25.40
2023-04-20T02:33:42.737Z,26.65
2023-04-20T02:36:10.772Z,25.63
2023-04-20T02:38:41.221Z,25.83
2023-04-20T02:41:08.875Z,25.60
2023-04-20T02:43:36.645Z,23.45
2023-04-20T02:46:05.701Z,24.48
2023-04-20T02:48:33.468Z,24.33
2023-04-20T02:51:02.571Z,22.60
2023-04-20T02:53:35.933Z,22.00
2023-04-20T02:56:13.967Z,21.15
2023-04-20T02:58:53.421Z,20.63
2023-04-20T03:01:29.114Z,19.13
2023-04-20T03:04:06.437Z,19.33
2023-04-20T03:06:40.420Z,18.73
2023-04-20T03:09:11.289Z,18.40
2023-04-20T03:11:58.922Z,17.35
2023-04-20T03:14:44.265Z,17.42
2023-04-20T03:17:12.345Z,16.50
2023-04-20T03:19:40.608Z,15.95
2023-04-20T03:22:09.913Z,15.82
2023-04-20T03:24:38.402Z,15.05
2023-04-20T03:27:16.490Z,14.10
2023-04-20T03:30:01.920Z,13.38
2023-04-20T03:32:32.680Z,12.85
2023-04-20T03:35:00.988Z,13.25
2023-04-20T03:37:30.684Z,12.38
2023-04-20T03:39:58.340Z,11.80
2023-04-20T03:42:26.313Z,11.98
2023-04-20T03:44:55.542Z,11.30
2023-04-20T03:47:23.253Z,10.55
2023-04-20T03:49:51.450Z,10.38
2023-04-20T03:52:19.155Z,9.88
2023-04-20T03:54:48.139Z,9.82
2023-04-20T03:57:17.619Z,8.68
2023-04-20T03:59:45.395Z,9.18
2023-04-20T04:02:17.603Z,7.88
2023-04-20T04:04:47.565Z,8.02
2023-04-20T04:07:15.410Z,7.20
2023-04-20T04:09:44.464Z,7.40
2023-04-20T04:12:14.962Z,7.10
2023-04-20T04:14:42.694Z,6.82
2023-04-20T04:17:12.025Z,6.88
2023-04-20T04:19:43.531Z,6.60
2023-04-20T04:22:11.281Z,6.72
2023-04-20T04:24:48.727Z,6.13
2023-04-20T04:27:20.736Z,5.70
2023-04-20T04:29:55.356Z,5.32
2023-04-20T04:32:25.149Z,5.00
2023-04-20T04:34:53.355Z,5.35
2023-04-20T04:37:21.688Z,5.00
2023-04-20T04:39:54.925Z,4.75
2023-04-20T04:42:30.086Z,4.18
2023-04-20T04:45:01.953Z,3.70
2023-04-20T04:47:35.379Z,4.22
2023-04-20T04:50:05.565Z,3.90
2023-04-20T04:52:33.800Z,3.50
2023-04-20T04:55:01.458Z,3.60
2023-04-20T04:57:30.453Z,3.80
2023-04-20T04:59:58.090Z,3.22
2023-04-20T05:02:25.958Z,3.33
2023-04-20T05:04:53.859Z,3.20
2023-04-20T05:07:21.548Z,2.80
2023-04-20T05:09:49.177Z,2.80
2023-04-20T05:12:16.832Z,2.78
2023-04-20T05:14:46.098Z,2.83
2023-04-20T05:17:13.790Z,2.47
2023-04-20T05:19:41.465Z,2.45
2023-04-20T05:22:09.137Z,2.25
2023-04-20T05:24:36.799Z,2.50
2023-04-20T05:27:05.037Z,2.30
2023-04-20T05:29:32.954Z,2.10
2023-04-20T05:32:02.236Z,2.50
2023-04-20T05:34:29.942Z,2.35
2023-04-20T05:36:59.238Z,2.65
2023-04-20T05:39:27.224Z,2.10
2023-04-20T05:41:54.897Z,2.78
2023-04-20T05:44:22.541Z,2.08
2023-04-20T05:46:50.283Z,1.98
2023-04-20T05:49:19.514Z,3.03
2023-04-20T05:51:47.422Z,2.10
2023-04-20T05:54:15.099Z,1.92
2023-04-20T05:56:42.774Z,2.45
2023-04-20T05:59:10.483Z,2.13
2023-04-20T06:01:38.120Z,1.95
2023-04-20T06:04:06.024Z,2.05
2023-04-20T06:06:35.431Z,2.17
2023-04-20T06:09:03.844Z,1.77
2023-04-20T06:11:31.515Z,2.13
2023-04-20T06:13:59.192Z,3.35
2023-04-20T06:16:27.070Z,1.88
2023-04-20T06:18:54.911Z,2.38
2023-04-20T06:21:24.374Z,2.03
2023-04-20T06:23:53.457Z,1.45
2023-04-20T06:26:22.013Z,2.03
2023-04-20T06:28:51.788Z,2.45
2023-04-20T06:31:19.469Z,3.28
2023-04-20T06:33:47.179Z,1.95
2023-04-20T06:36:14.842Z,2.20
2023-04-20T06:38:42.531Z,1.80
2023-04-20T06:41:11.514Z,2.15
2023-04-20T06:43:39.296Z,2.03
2023-04-20T06:46:07.058Z,2.90
2023-04-20T06:48:35.063Z,2.00
2023-04-20T06:51:02.790Z,1.77
2023-04-20T06:53:30.459Z,1.90
2023-04-20T06:55:58.807Z,1.95
2023-04-20T06:58:27.783Z,2.78
2023-04-20T07:00:55.450Z,2.22
2023-04-20T07:03:24.139Z,2.30
2023-04-20T07:05:52.141Z,2.45
2023-04-20T07:08:20.074Z,2.78
2023-04-20T07:10:47.743Z,2.28
2023-04-20T07:13:15.573Z,2.20
2023-04-20T07:15:45.756Z,1.50
2023-04-20T07:18:13.441Z,1.65
2023-04-20T07:20:41.189Z,1.92
2023-04-20T07:23:09.028Z,1.63
2023-04-20T07:25:36.695Z,1.75
2023-04-20T07:28:04.380Z,2.03
2023-04-20T07:30:32.178Z,2.80
2023-04-20T07:33:01.212Z,3.15
2023-04-20T07:35:29.042Z,1.83
2023-04-20T07:37:56.786Z,2.33
2023-04-20T07:40:24.732Z,1.50
2023-04-20T07:42:52.388Z,3.17
2023-04-20T07:45:20.211Z,1.95
2023-04-20T07:47:51.364Z,1.65
2023-04-20T07:50:20.584Z,1.88
2023-04-20T07:52:48.267Z,2.58
2023-04-20T07:55:17.225Z,1.88
2023-04-20T07:57:45.053Z,2.38
2023-04-20T08:00:14.975Z,2.03
2023-04-20T08:02:42.719Z,1.98
2023-04-20T08:05:11.130Z,2.78
2023-04-20T08:07:40.586Z,1.80
2023-04-20T08:10:09.153Z,2.22
2023-04-20T08:12:36.859Z,2.67
2023-04-20T08:15:06.571Z,2.30
2023-04-20T08:17:34.459Z,2.03
2023-04-20T08:20:02.216Z,1.83
2023-04-20T08:22:30.653Z,2.30
2023-04-20T08:24:59.634Z,2.30
2023-04-20T08:27:29.543Z,2.83
2023-04-20T08:29:57.263Z,2.95
2023-04-20T08:32:26.486Z,2.97
2023-04-20T08:34:54.348Z,1.63
2023-04-20T08:37:22.079Z,3.00
2023-04-20T08:39:49.730Z,2.17
2023-04-20T08:42:18.716Z,2.00
2023-04-20T08:44:46.390Z,2.05
2023-04-20T08:47:14.965Z,3.25
2023-04-20T08:49:42.626Z,2.47
2023-04-20T08:52:11.159Z,2.03
2023-04-20T08:54:42.953Z,1.73
2023-04-20T08:57:18.566Z,2.45
2023-04-20T08:59:46.218Z,2.13
2023-04-20T09:02:14.429Z,2.03
2023-04-20T09:04:42.584Z,2.17
2023-04-20T09:07:18.410Z,1.67
2023-04-20T09:09:54.826Z,2.47
2023-04-20T09:12:24.658Z,1.48
2023-04-20T09:14:52.466Z,4.25
2023-04-20T09:17:31.236Z,1.58
2023-04-20T09:19:59.112Z,2.42
2023-04-20T09:22:33.143Z,2.15
2023-04-20T09:25:01.162Z,1.73
2023-04-20T09:27:30.201Z,3.00
2023-04-20T09:29:58.712Z,2.55
2023-04-20T09:32:27.889Z,2.03
2023-04-20T09:34:56.028Z,2.75
2023-04-20T09:37:23.821Z,2.28
2023-04-20T09:39:51.587Z,1.88
2023-04-20T09:42:19.302Z,2.33
2023-04-20T09:44:48.417Z,1.98
2023-04-20T09:47:17.748Z,2.25
2023-04-20T09:49:46.481Z,2.20
2023-04-20T09:52:17.787Z,1.95
2023-04-20T09:54:45.706Z,1.70
2023-04-20T09:57:14.064Z,2.45
2023-04-20T09:59:43.099Z,2.00
2023-04-20T10:02:13.116Z,2.20
2023-04-20T10:04:55.093Z,1.80
2023-04-20T10:07:27.085Z,1.75
2023-04-20T10:10:13.625Z,2.10
2023-04-20T10:12:50.640Z,1.98
2023-04-20T10:15:18.402Z,3.50
2023-04-20T10:17:47.545Z,3.08
2023-04-20T10:20:22.645Z,1.63
2023-04-20T10:22:51.130Z,2.33
2023-04-20T10:25:20.398Z,3.40
2023-04-20T10:27:55.286Z,2.17
2023-04-20T10:30:23.569Z,1.92
2023-04-20T10:33:05.872Z,2.75
2023-04-20T10:35:44.600Z,1.85
2023-04-20T10:38:13.577Z,2.35
2023-04-20T10:40:41.271Z,1.67
2023-04-20T10:43:19.350Z,2.25
2023-04-20T10:45:47.024Z,1.83
2023-04-20T10:48:17.877Z,2.38
2023-04-20T10:50:46.012Z,1.55
2023-04-20T10:53:21.324Z,2.75
2023-04-20T10:55:51.457Z,2.55
2023-04-20T10:58:23.318Z,3.22
2023-04-20T11:01:01.066Z,3.63
2023-04-20T11:03:30.920Z,3.17
2023-04-20T11:06:01.407Z,1.98
2023-04-20T11:08:39.648Z,3.08
2023-04-20T11:11:08.728Z,2.35
2023-04-20T11:13:37.487Z,3.40
2023-04-20T11:16:12.182Z,5.45
2023-04-20T11:18:50.178Z,4.38
2023-04-20T11:21:17.849Z,5.85
2023-04-20T11:23:45.595Z,7.10
2023-04-20T11:26:13.315Z,7.80
2023-04-20T11:28:54.524Z,5.60
2023-04-20T11:31:23.815Z,5.90
2023-04-20T11:33:53.141Z,7.55
2023-04-20T11:36:21.558Z,8.15
2023-04-20T11:38:49.250Z,9.70
2023-04-20T11:41:17.549Z,8.57
2023-04-20T11:43:45.525Z,8.02
2023-04-20T11:46:16.904Z,10.48
2023-04-20T11:48:44.871Z,12.48
2023-04-20T11:51:14.248Z,10.77
2023-04-20T11:53:42.163Z,8.70
2023-04-20T11:56:09.830Z,12.05
2023-04-20T11:58:38.332Z,14.95
2023-04-20T12:01:06.707Z,13.40
2023-04-20T12:03:34.637Z,10.05
2023-04-20T12:06:02.599Z,11.25
2023-04-20T12:08:32.099Z,11.68
2023-04-20T12:10:59.821Z,11.77
2023-04-20T12:13:27.521Z,12.20
2023-04-20T12:15:55.328Z,14.10
2023-04-20T12:18:23.218Z,15.20
2023-04-20T12:20:51.487Z,12.80
2023-04-20T12:23:19.200Z,13.05
2023-04-20T12:25:49.248Z,10.15
2023-04-20T12:28:16.986Z,15.10
2023-04-20T12:30:44.789Z,11.32
2023-04-20T12:33:12.540Z,9.82
2023-04-20T12:35:40.293Z,11.57
2023-04-20T12:38:07.981Z,17.02
2023-04-20T12:40:36.005Z,7.97
2023-04-20T12:43:04.990Z,6.97
2023-04-20T12:45:32.721Z,10.27
2023-04-20T12:48:00.773Z,14.07
2023-04-20T12:50:29.018Z,12.68
2023-04-20T12:52:58.377Z,11.73
2023-04-20T12:55:26.360Z,10.55
2023-04-20T12:57:54.077Z,9.77
2023-04-20T13:00:23.234Z,8.73
2023-04-20T13:02:51.257Z,9.95
2023-04-20T13:05:19.768Z,9.18
2023-04-20T13:07:47.482Z,8.35
2023-04-20T13:10:15.235Z,12.15
2023-04-20T13:12:42.975Z,9.77
2023-04-20T13:15:12.741Z,9.18
2023-04-20T13:17:41.934Z,11.00
2023-04-20T13:20:10.703Z,10.30
2023-04-20T13:22:47.040Z,9.40
2023-04-20T13:25:25.005Z,11.20
2023-04-20T13:27:53.991Z,9.88
2023-04-20T13:30:24.284Z,17.67
2023-04-20T13:32:53.683Z,16.30
2023-04-20T13:35:21.650Z,28.08
2023-04-20T13:37:49.295Z,14.73
2023-04-20T13:40:17.025Z,14.63
2023-04-20T13:42:44.755Z,10.45
2023-04-20T13:45:12.894Z,9.20
2023-04-20T13:47:40.630Z,19.92
2023-04-20T13:50:10.890Z,13.27
2023-04-20T13:52:38.584Z,15.98
2023-04-20T13:55:06.750Z,17.13
2023-04-20T13:57:34.443Z,19.30
2023-04-20T14:00:02.277Z,12.60
2023-04-20T14:02:33.314Z,14.50
2023-04-20T14:05:01.045Z,17.95
2023-04-20T14:07:30.047Z,23.80
2023-04-20T14:09:59.731Z,21.50
2023-04-20T14:12:28.371Z,16.70
2023-04-20T14:14:57.875Z,16.35
2023-04-20T14:17:25.693Z,14.07
2023-04-20T14:19:53.422Z,15.10
2023-04-20T14:22:21.140Z,14.15
2023-04-20T14:24:50.158Z,23.48
2023-04-20T14:27:17.863Z,26.30
2023-04-20T14:29:45.597Z,14.90
2023-04-20T14:32:13.747Z,13.07
2023-04-20T14:34:41.435Z,21.50
2023-04-20T14:37:09.641Z,15.70
2023-04-20T14:39:37.359Z,14.15
2023-04-20T14:42:07.489Z,12.98
2023-04-20T14:44:35.292Z,13.43
2023-04-20T14:47:03.300Z,13.85
2023-04-20T14:49:31.095Z,17.88
2023-04-20T14:51:58.796Z,14.77
2023-04-20T14:54:26.504Z,16.02
2023-04-20T14:56:54.191Z,15.70
2023-04-20T14:59:24.462Z,16.48
2023-04-20T15:02:01.735Z,12.27
2023-04-20T15:04:31.045Z,16.15
2023-04-20T15:06:58.862Z,11.18
2023-04-20T15:09:26.651Z,11.02
2023-04-20T15:11:54.442Z,13.02
2023-04-20T15:14:23.449Z,11.00
2023-04-20T15:16:51.944Z,11.25
2023-04-20T15:19:20.240Z,15.18
2023-04-20T15:21:47.970Z,12.65
2023-04-20T15:24:15.771Z,18.98
2023-04-20T15:26:43.581Z,12.75
2023-04-20T15:29:11.247Z,12.05
2023-04-20T15:31:40.587Z,9.52
2023-04-20T15:34:08.284Z,11.13
2023-04-20T15:36:36.028Z,12.75
2023-04-20T15:39:04.654Z,12.88
2023-04-20T15:41:32.362Z,12.38
2023-04-20T15:44:00.276Z,16.92
2023-04-20T15:46:28.254Z,13.50
2023-04-20T15:48:57.303Z,19.27
2023-04-20T15:51:25.028Z,9.20
2023-04-20T15:53:52.790Z,29.75
2023-04-20T15:56:21.995Z,15.38
2023-04-20T15:58:50.148Z,15.85
2023-04-20T16:01:18.054Z,15.15
2023-04-20T16:03:46.557Z,15.85
2023-04-20T16:06:15.711Z,17.08
2023-04-20T16:08:43.449Z,21.58
2023-04-20T16:11:11.098Z,13.07
2023-04-20T16:13:38.830Z,14.63
2023-04-20T16:16:07.016Z,13.23
2023-04-20T16:18:34.939Z,17.10
2023-04-20T16:21:02.671Z,9.25
2023-04-20T16:23:31.896Z,8.95
2023-04-20T16:25:59.669Z,12.55
2023-04-20T16:28:27.404Z,16.17
2023-04-20T16:30:55.104Z,14.98
2023-04-20T16:33:23.231Z,14.27
2023-04-20T16:35:51.074Z,23.63
2023-04-20T16:38:20.060Z,25.35
2023-04-20T16:40:49.192Z,21.13
2023-04-20T16:43:16.843Z,17.35
2023-04-20T16:45:44.517Z,26.08
2023-04-20T16:48:12.261Z,21.50
2023-04-20T16:50:41.571Z,14.75
2023-04-20T16:53:09.957Z,13.50
2023-04-20T16:55:37.663Z,16.73
2023-04-20T16:58:06.857Z,19.17
2023-04-20T17:00:35.331Z,28.30
2023-04-20T17:03:06.572Z,15.35
2023-04-20T17:05:34.453Z,11.77
2023-04-20T17:08:02.126Z,12.77
2023-04-20T17:10:29.787Z,18.92
2023-04-20T17:12:57.479Z,16.33
2023-04-20T17:15:26.874Z,17.80
2023-04-20T17:17:54.574Z,23.38
2023-04-20T17:20:22.563Z,19.75
2023-04-20T17:22:50.276Z,13.65
2023-04-20T17:25:17.991Z,13.52
2023-04-20T17:27:45.665Z,10.40
2023-04-20T17:30:14.366Z,13.63
2023-04-20T17:32:43.567Z,14.70
2023-04-20T17:35:11.302Z,13.02
2023-04-20T17:37:39.032Z,11.30
2023-04-20T17:40:08.216Z,11.90
2023-04-20T17:42:36.044Z,15.00
2023-04-20T17:45:03.797Z,13.68
2023-04-20T17:47:32.563Z,14.00
2023-04-20T17:50:01.704Z,11.65
2023-04-20T17:52:29.392Z,12.48
2023-04-20T17:54:59.865Z,17.70
2023-04-20T17:57:27.652Z,12.48
2023-04-20T17:59:55.493Z,12.68
2023-04-20T18:02:24.100Z,11.23
2023-04-20T18:04:52.096Z,9.55
2023-04-20T18:07:21.479Z,8.98
2023-04-20T18:09:49.186Z,9.10
2023-04-20T18:12:16.934Z,11.30
2023-04-20T18:14:44.604Z,10.68
2023-04-20T18:17:12.266Z,10.10
2023-04-20T18:19:40.805Z,9.77
2023-04-20T18:22:08.898Z,8.00
2023-04-20T18:24:37.978Z,10.18
2023-04-20T18:27:05.723Z,8.27
2023-04-20T18:29:33.382Z,9.18
2023-04-20T18:32:01.406Z,11.63
2023-04-20T18:34:30.907Z,8.73
2023-04-20T18:36:58.877Z,8.65
2023-04-20T18:39:26.616Z,7.93
2023-04-20T18:41:55.737Z,9.15
2023-04-20T18:44:23.488Z,11.43
2023-04-20T18:46:51.362Z,7.40
2023-04-20T18:49:19.084Z,6.70
2023-04-20T18:51:46.766Z,6.80
2023-04-20T18:54:14.429Z,7.03
2023-04-20T18:56:42.142Z,7.15
2023-04-20T18:59:11.496Z,7.85
2023-04-20T19:01:40.529Z,5.75
2023-04-20T19:04:08.683Z,7.10
2023-04-20T19:06:36.633Z,8.50
2023-04-20T19:09:05.971Z,6.80
2023-04-20T19:11:35.645Z,6.38
2023-04-20T19:14:03.308Z,8.13
2023-04-20T19:16:32.607Z,5.18
2023-04-20T19:19:00.496Z,7.47
2023-04-20T19:21:28.357Z,5.60
2023-04-20T19:23:56.521Z,5.35
2023-04-20T19:26:24.884Z,5.63
2023-04-20T19:28:53.325Z,7.15
2023-04-20T19:31:21.096Z,5.85
2023-04-20T19:33:50.279Z,4.85
2023-04-20T19:36:19.103Z,6.07
2023-04-20T19:38:46.825Z,5.95
2023-04-20T19:41:14.505Z,6.63
2023-04-20T19:43:42.157Z,6.60
2023-04-20T19:46:10.042Z,5.30
2023-04-20T19:48:37.760Z,5.00
2023-04-20T19:51:06.762Z,5.47
2023-04-20T19:53:34.494Z,6.00
2023-04-20T19:56:04.250Z,6.65
2023-04-20T19:58:33.975Z,6.13
2023-04-20T20:01:02.104Z,6.78
2023-04-20T20:03:29.979Z,5.13
2023-04-20T20:05:57.802Z,4.40
2023-04-20T20:08:26.833Z,4.30
2023-04-20T20:10:54.512Z,5.25
2023-04-20T20:13:22.195Z,6.47
2023-04-20T20:15:49.916Z,5.90
2023-04-20T20:18:18.468Z,4.80
2023-04-20T20:20:46.172Z,5.35
2023-04-20T20:23:13.867Z,4.95
2023-04-20T20:25:42.864Z,6.40
2023-04-20T20:28:10.557Z,4.88
2023-04-20T20:30:38.254Z,6.18
2023-04-20T20:33:06.022Z,6.55
2023-04-20T20:35:33.766Z,5.00
2023-04-20T20:38:01.419Z,4.53
2023-04-20T20:40:29.108Z,5.25
2023-04-20T20:42:58.463Z,5.32
2023-04-20T20:45:26.332Z,4.15
2023-04-20T20:47:54.175Z,5.00
2023-04-20T20:50:22.681Z,3.80
2023-04-20T20:52:50.398Z,6.70
2023-04-20T20:55:18.052Z,5.20
2023-04-20T20:57:46.472Z,6.88
2023-04-20T21:00:16.531Z,5.13
2023-04-20T21:02:44.373Z,4.95
2023-04-20T21:05:12.260Z,4.70
2023-04-20T21:07:40.188Z,3.40
2023-04-20T21:10:08.630Z,6.13
2023-04-20T21:12:36.425Z,4.32
2023-04-20T21:15:04.165Z,3.55
2023-04-20T21:17:33.218Z,4.88
2023-04-20T21:20:00.889Z,2.67
2023-04-20T21:22:28.547Z,3.38
2023-04-20T21:24:56.248Z,4.65
2023-04-20T21:27:23.961Z,4.78
2023-04-20T21:29:51.639Z,3.33
2023-04-20T21:32:19.367Z,5.47
2023-04-20T21:34:48.436Z,3.75
2023-04-20T21:37:16.101Z,2.90
2023-04-20T21:39:43.836Z,4.40
2023-04-20T21:42:11.683Z,4.30
2023-04-20T21:44:39.366Z,4.22
2023-04-20T21:47:07.042Z,4.25
2023-04-20T21:49:34.705Z,4.55
2023-04-20T21:52:03.785Z,4.63
2023-04-20T21:54:33.268Z,4.55
2023-04-20T21:57:02.434Z,4.25
2023-04-20T21:59:30.164Z,2.78
2023-04-20T22:01:57.840Z,3.17
2023-04-20T22:04:26.804Z,4.85
2023-04-20T22:06:55.427Z,3.63
2023-04-20T22:09:24.840Z,4.07
2023-04-20T22:11:53.578Z,5.05
2023-04-20T22:14:21.449Z,3.38
2023-04-20T22:16:49.132Z,4.25
2023-04-20T22:19:17.500Z,3.25
2023-04-20T22:21:45.290Z,3.85
2023-04-20T22:24:12.987Z,3.35
2023-04-20T22:26:42.131Z,3.20
2023-04-20T22:29:09.914Z,5.13
2023-04-20T22:31:37.953Z,3.60
2023-04-20T22:34:05.709Z,2.97
2023-04-20T22:36:34.990Z,5.28
2023-04-20T22:39:02.712Z,4.18
2023-04-20T22:41:30.424Z,4.03
2023-04-20T22:43:59.415Z,3.45
2023-04-20T22:46:27.245Z,3.70
2023-04-20T22:48:56.573Z,3.53
2023-04-20T22:51:24.245Z,4.20
2023-04-20T22:53:51.925Z,4.07
2023-04-20T22:56:19.581Z,3.85
2023-04-20T22:58:47.245Z,4.90
2023-04-20T23:01:16.304Z,3.58
2023-04-20T23:03:44.246Z,2.55
2023-04-20T23:06:12.152Z,3.85
2023-04-20T23:08:39.847Z,3.85
2023-04-20T23:11:07.542Z,3.55
2023-04-20T23:13:37.051Z,2.67
2023-04-20T23:16:05.017Z,4.30
2023-04-20T23:18:34.411Z,2.70
2023-04-20T23:21:02.084Z,4.57
2023-04-20T23:23:29.755Z,2.38
2023-04-20T23:25:57.454Z,2.83
2023-04-20T23:28:25.129Z,3.00
2023-04-20T23:30:52.780Z,2.67
2023-04-20T23:33:20.598Z,2.28
2023-04-20T23:35:49.634Z,2.58
2023-04-20T23:38:18.050Z,2.88
2023-04-20T23:40:45.913Z,2.40
2023-04-20T23:43:13.584Z,2.38
2023-04-20T23:45:41.318Z,3.20
2023-04-20T23:48:09.078Z,2.70
2023-04-20T23:50:37.686Z,2.53
2023-04-20T23:53:07.429Z,2.63
2023-04-20T23:55:35.136Z,2.60
2023-04-20T23:58:02.790Z,2.92
